« Back
NWS Peachtree City, Ga » Text Product » MCN Terminal Aerodrome Forecast


Printer-friendly Version
Current Version              Previous Versions:   1  2  3  4  5  6  7  8  9  

Terminal Aerodrome Forecast

251
FTUS42 KFFC 010520
TAFMCN
TAF
KMCN 010520Z 0106/0206 00000KT 6SM BR SKC
     FM010800 00000KT 4SM BR SKC
      TEMPO 0109/0112 2SM BR
     FM011400 VRB03KT P6SM SCT030
     FM011800 VRB04KT P6SM SCT050
     FM020000 00000KT P6SM SCT250=



USA.gov is the U.S. government's official web portal to all federal, state and local government web resources and services.